• Join FlightAware (Why Join?)
  • Login
  • US Flag 
04:22AM EDT


 

Airport Tracker/Info


-or-


 

Live Flight TrackerFlight Track Log ✈ N6867L ✈ 9 de May de 2013 ✈ KSBP - KBFL

Flight Track Log - Related Links

Times and Time Zones

All times are in EDT time to prevent confusion due to time zone crossing. See the N6867L flight status page for this flight to view local times or setup timezone preferences in your user account.

Time Position Orientation Groundspeed Altitude Reporting Facility
EDT Latitude Longitude Course Direction KTS MPH feet Rate Location/Type
10:19AM 35.2506 -120.6658 297° West 124 143 1,300  Level Los Angeles Center
10:20AM 35.2611 -120.6911 297° West 109 125 2,300 1,140 Climbing Los Angeles Center
10:21AM 35.2783 -120.7208 305° West 108 124 3,400 960 Climbing Los Angeles Center
10:22AM 35.2575 -120.7414 219° Southwest 144 166 4,400 840 Climbing Los Angeles Center
10:23AM 35.2456 -120.6983 109° East 147 169 5,200 840 Climbing Los Angeles Center
10:24AM 35.2506 -120.6483 83° East 148 170 6,200 900 Climbing Los Angeles Center
10:25AM 35.2575 -120.5992 80° East 147 169 7,100 840 Climbing Los Angeles Center
10:26AM 35.2636 -120.5503 81° East 145 167 8,000 840 Climbing Los Angeles Center
10:27AM 35.2714 -120.4994 79° East 150 173 8,900 900 Climbing Los Angeles Center
10:28AM 35.2775 -120.4478 82° East 152 175 9,900 960 Climbing Los Angeles Center
10:29AM 35.2842 -120.3897 82° East 146 168 11,000 540 Climbing Los Angeles Center
10:31AM 35.2903 -120.3319 83° East 169 194 11,100  Climbing Los Angeles Center
10:32AM 35.2992 -120.2614 81° East 175 201 11,100  Level Los Angeles Center
10:33AM 35.3061 -120.2039 82° East 172 198 11,100  Level Los Angeles Center
10:34AM 35.3133 -120.1447 81° East 174 200 11,100  Level Los Angeles Center
10:35AM 35.3203 -120.0800 82° East 176 203 11,100  Level Los Angeles Center
10:36AM 35.3278 -120.0225 81° East 172 198 11,100  Level Los Angeles Center
10:37AM 35.3336 -119.9644 83° East 173 199 11,100  Level Los Angeles Center
10:38AM 35.3400 -119.9061 82° East 173 199 11,100 -300 Level Los Angeles Center
10:39AM 35.3478 -119.8350 82° East 175 201 10,600 -540 Descending Los Angeles Center
10:40AM 35.3550 -119.7717 82° East 185 213 10,100 -540 Descending Los Angeles Center
10:41AM 35.3608 -119.7069 84° East 190 219 9,500 -780 Descending Los Angeles Center
10:42AM 35.3703 -119.6422 80° East 193 222 8,600 -1,020 Descending Los Angeles Center
10:43AM 35.3772 -119.5714 83° East 204 235 7,500 -840 Descending Los Angeles Center
10:44AM 35.3858 -119.5028 81° East 205 236 7,000 -480 Descending Los Angeles Center
10:45AM 35.3886 -119.4325 87° East 186 214 6,600 -720 Descending Los Angeles Center
10:46AM 35.3772 -119.3667 102° East 188 216 5,600 -960 Descending Los Angeles Center
10:47AM 35.3672 -119.2986 100° East 197 227 4,700 -900 Descending Los Angeles Center
10:49AM 35.3840 -119.2314 73° East  Level FlightAware Approximate
10:56AM 35.4333 -119.0500 68° East  Level FlightAware Approximate
10:57AM 35.4339 -119.0577 68° East  Level Estimated
10:58AM 35.4333 -119.0500 68° East  Level FlightAware Approximate
10:59AM 35.4339 -119.0577 68° East  Level Estimated